createdAt,value
2017-06-12T00:00:16.789Z,25.14
2017-06-12T00:00:57.299Z,25.15
2017-06-12T00:01:37.829Z,25.13
2017-06-12T00:02:18.319Z,25.14
2017-06-12T00:02:58.826Z,25.15
2017-06-12T00:03:39.347Z,25.13
2017-06-12T00:04:19.848Z,25.21
2017-06-12T00:05:00.314Z,25.25
2017-06-12T00:05:40.814Z,25.15
2017-06-12T00:06:21.377Z,25.08
2017-06-12T00:07:01.855Z,25.09
2017-06-12T00:07:42.321Z,25.14
2017-06-12T00:08:22.800Z,25.05
2017-06-12T00:09:03.339Z,25.08
2017-06-12T00:09:43.813Z,25.1
2017-06-12T00:10:24.352Z,25.13
2017-06-12T00:11:04.882Z,25.09
2017-06-12T00:11:45.367Z,25.09
2017-06-12T00:12:25.908Z,25.14
2017-06-12T00:13:06.405Z,25.14
2017-06-12T00:13:46.919Z,25.06
2017-06-12T00:14:27.411Z,25.13
2017-06-12T00:15:07.905Z,25.08
2017-06-12T00:15:48.419Z,25.09
2017-06-12T00:16:28.921Z,25.13
2017-06-12T00:17:09.469Z,25.09
2017-06-12T00:17:49.971Z,25.03
2017-06-12T00:18:30.485Z,25.03
2017-06-12T00:19:10.973Z,25.03
2017-06-12T00:19:51.510Z,25.1
2017-06-12T00:20:32.020Z,25.03
2017-06-12T00:21:12.521Z,25.08
2017-06-12T00:21:53.010Z,25.06
2017-06-12T00:22:33.508Z,25.03
2017-06-12T00:23:13.980Z,24.99
2017-06-12T00:23:54.498Z,25.03
2017-06-12T00:24:35.049Z,25
2017-06-12T00:25:15.567Z,24.96
2017-06-12T00:25:56.068Z,24.99
2017-06-12T00:26:36.609Z,25.08
2017-06-12T00:27:17.049Z,25
2017-06-12T00:27:57.553Z,25.03
2017-06-12T00:28:38.104Z,25
2017-06-12T00:29:18.624Z,25.05
2017-06-12T00:29:59.063Z,25.05
2017-06-12T00:30:39.545Z,25.05
2017-06-12T00:31:20.078Z,25.03
2017-06-12T00:32:00.589Z,25.05
2017-06-12T00:32:41.058Z,25.08
2017-06-12T00:33:22.237Z,25.05
2017-06-12T00:34:02.722Z,25
2017-06-12T00:34:43.197Z,25.03
2017-06-12T00:35:23.745Z,25.02
2017-06-12T00:36:04.250Z,25
2017-06-12T00:36:44.720Z,24.95
2017-06-12T00:37:25.241Z,24.99
2017-06-12T00:38:05.748Z,24.95
2017-06-12T00:38:46.300Z,25.02
2017-06-12T00:39:26.763Z,24.93
2017-06-12T00:40:07.299Z,24.96
2017-06-12T00:40:47.764Z,24.98
2017-06-12T00:41:28.273Z,24.88
2017-06-12T00:42:08.783Z,24.98
2017-06-12T00:42:49.266Z,24.93
2017-06-12T00:43:29.745Z,25.03
2017-06-12T00:44:10.249Z,24.99
2017-06-12T00:44:50.827Z,24.99
2017-06-12T00:45:31.306Z,24.99
2017-06-12T00:46:11.996Z,24.96
2017-06-12T00:46:52.461Z,24.96
2017-06-12T00:47:33.015Z,24.93
2017-06-12T00:48:13.519Z,24.88
2017-06-12T00:48:53.983Z,24.93
2017-06-12T00:49:34.482Z,24.9
2017-06-12T00:50:14.965Z,24.9
2017-06-12T00:50:55.503Z,24.9
2017-06-12T00:51:35.963Z,24.87
2017-06-12T00:52:16.484Z,24.87
2017-06-12T00:52:57.041Z,24.88
2017-06-12T00:53:37.529Z,24.88
2017-06-12T00:54:18.020Z,24.93
2017-06-12T00:54:58.532Z,24.84
2017-06-12T00:55:39.029Z,24.91
2017-06-12T00:56:19.573Z,24.9
2017-06-12T00:57:00.066Z,24.9
2017-06-12T00:57:40.566Z,24.93
2017-06-12T00:58:21.038Z,24.84
2017-06-12T00:59:01.564Z,24.88
2017-06-12T00:59:42.121Z,24.84
2017-06-12T01:00:22.604Z,24.9
2017-06-12T01:01:03.087Z,24.95
2017-06-12T01:01:43.626Z,24.88
2017-06-12T01:02:24.119Z,24.78
2017-06-12T01:03:04.611Z,24.93
2017-06-12T01:03:45.119Z,24.9
2017-06-12T01:04:25.641Z,24.87
2017-06-12T01:05:06.166Z,24.85
2017-06-12T01:05:46.662Z,24.91
2017-06-12T01:06:27.175Z,24.87
2017-06-12T01:07:07.633Z,24.85
2017-06-12T01:07:48.147Z,24.93
2017-06-12T01:08:28.646Z,24.83
2017-06-12T01:09:09.239Z,24.85
2017-06-12T01:09:49.682Z,24.91
2017-06-12T01:10:30.185Z,24.83
2017-06-12T01:11:10.740Z,24.81
2017-06-12T01:11:51.224Z,24.83
2017-06-12T01:12:31.791Z,24.85
2017-06-12T01:13:12.253Z,24.85
2017-06-12T01:13:52.728Z,24.88
2017-06-12T01:14:33.258Z,24.9
2017-06-12T01:15:13.730Z,24.91
2017-06-12T01:15:54.241Z,24.9
2017-06-12T01:16:34.732Z,24.87
2017-06-12T01:17:15.286Z,24.91
2017-06-12T01:17:55.738Z,24.93
2017-06-12T01:18:36.243Z,24.91
2017-06-12T01:19:16.767Z,24.93
2017-06-12T01:19:57.246Z,24.91
2017-06-12T01:20:37.790Z,24.87
2017-06-12T01:21:18.276Z,24.85
2017-06-12T01:21:58.766Z,24.91
2017-06-12T01:22:39.274Z,24.9
2017-06-12T01:23:19.737Z,24.98
2017-06-12T01:24:00.281Z,24.95
2017-06-12T01:24:40.732Z,24.87
2017-06-12T01:25:21.243Z,24.98
2017-06-12T01:26:01.765Z,24.99
2017-06-12T01:26:42.310Z,24.99
2017-06-12T01:27:22.793Z,25.06
2017-06-12T01:28:03.295Z,24.99
2017-06-12T01:28:43.788Z,25.03
2017-06-12T01:29:24.267Z,25
2017-06-12T01:30:04.759Z,25.08
2017-06-12T01:30:45.283Z,25.02
2017-06-12T01:31:25.765Z,25
2017-06-12T01:32:06.255Z,25.06
2017-06-12T01:32:46.746Z,25.02
2017-06-12T01:33:27.272Z,25.03
2017-06-12T01:34:07.774Z,25.03
2017-06-12T01:34:48.281Z,25.06
2017-06-12T01:35:28.802Z,25.05
2017-06-12T01:36:09.275Z,25.05
2017-06-12T01:36:49.778Z,25
2017-06-12T01:37:30.256Z,25.08
2017-06-12T01:38:10.765Z,24.98
2017-06-12T01:38:51.256Z,24.99
2017-06-12T01:39:31.806Z,24.99
2017-06-12T01:40:12.281Z,25.08
2017-06-12T01:40:52.737Z,25.03
2017-06-12T01:41:33.230Z,25.08
2017-06-12T01:42:13.741Z,25.1
2017-06-12T01:42:54.262Z,25
2017-06-12T01:43:34.739Z,25.05
2017-06-12T01:44:15.266Z,25.08
2017-06-12T01:44:55.757Z,25.06
2017-06-12T01:45:36.319Z,25.02
2017-06-12T01:46:16.814Z,25
2017-06-12T01:46:57.327Z,25.02
2017-06-12T01:47:37.828Z,25.03
2017-06-12T01:48:18.346Z,25.02
2017-06-12T01:48:58.824Z,25.06
2017-06-12T01:49:39.324Z,25.17
2017-06-12T01:50:19.831Z,25.08
2017-06-12T01:51:00.316Z,25.08
2017-06-12T01:51:40.817Z,25.05
2017-06-12T01:52:21.341Z,25.14
2017-06-12T01:53:01.868Z,25.06
2017-06-12T01:53:42.335Z,25.1
2017-06-12T01:54:22.827Z,25.1
2017-06-12T01:55:03.280Z,25.1
2017-06-12T01:55:43.853Z,25.09
2017-06-12T01:56:24.324Z,25.09
2017-06-12T01:57:04.778Z,25.09
2017-06-12T01:58:42.655Z,25.1
2017-06-12T01:59:23.155Z,25.1
2017-06-12T02:00:03.679Z,25.1
2017-06-12T02:00:44.198Z,25.09
2017-06-12T02:01:24.717Z,25.09
2017-06-12T02:02:05.239Z,25.08
2017-06-12T02:02:45.770Z,25.08
2017-06-12T02:03:26.309Z,25.02
2017-06-12T02:04:06.821Z,24.99
2017-06-12T02:04:47.355Z,25.03
2017-06-12T02:05:27.875Z,25.03
2017-06-12T02:06:08.408Z,25
2017-06-12T02:06:48.922Z,25
2017-06-12T02:07:29.447Z,25
2017-06-12T02:08:09.971Z,24.99
2017-06-12T02:08:50.500Z,24.99
2017-06-12T02:09:31.013Z,25.13
2017-06-12T02:10:11.527Z,25
2017-06-12T02:10:52.058Z,25.03
2017-06-12T02:11:32.566Z,24.99
2017-06-12T02:12:13.102Z,25
2017-06-12T02:12:53.626Z,25
2017-06-12T02:13:34.152Z,24.98
2017-06-12T02:14:14.674Z,25.02
2017-06-12T02:14:55.200Z,25.02
2017-06-12T02:15:35.712Z,25.02
2017-06-12T02:16:16.233Z,25
2017-06-12T02:16:56.760Z,24.96
2017-06-12T02:17:37.280Z,24.96
2017-06-12T02:18:17.814Z,24.95
2017-06-12T02:18:58.345Z,24.99
2017-06-12T02:19:38.867Z,25
2017-06-12T02:20:19.393Z,24.95
2017-06-12T02:20:59.925Z,24.98
2017-06-12T02:21:40.469Z,24.98
2017-06-12T02:22:20.987Z,24.96
2017-06-12T02:23:01.502Z,25
2017-06-12T02:23:42.014Z,25.05
2017-06-12T02:24:22.536Z,24.96
2017-06-12T02:25:03.064Z,24.91
2017-06-12T02:25:43.588Z,24.9
2017-06-12T02:26:24.111Z,24.9
2017-06-12T02:27:04.635Z,24.88
2017-06-12T02:27:45.169Z,24.98
2017-06-12T02:28:25.696Z,25
2017-06-12T02:29:06.231Z,25.03
2017-06-12T02:29:46.719Z,24.87
2017-06-12T02:30:27.225Z,24.88
2017-06-12T02:31:07.728Z,24.9
2017-06-12T02:31:48.247Z,24.93
2017-06-12T02:32:28.760Z,24.93
2017-06-12T02:33:09.254Z,24.88
2017-06-12T02:33:49.763Z,24.84
2017-06-12T02:34:30.253Z,24.85
2017-06-12T02:35:10.762Z,24.95
2017-06-12T02:35:51.281Z,24.87
2017-06-12T02:36:31.807Z,24.91
2017-06-12T02:37:12.331Z,24.95
2017-06-12T02:37:52.860Z,24.88
2017-06-12T02:38:33.366Z,24.87
2017-06-12T02:39:13.919Z,24.88
2017-06-12T02:39:54.397Z,24.9
2017-06-12T02:40:34.917Z,24.87
2017-06-12T02:41:15.427Z,24.83
2017-06-12T02:41:55.892Z,24.83
2017-06-12T02:42:36.414Z,24.76
2017-06-12T02:43:16.923Z,24.8
2017-06-12T02:43:57.407Z,24.77
2017-06-12T02:44:37.943Z,24.91
2017-06-12T02:45:18.440Z,24.85
2017-06-12T02:45:58.925Z,24.81
2017-06-12T02:46:39.396Z,24.76
2017-06-12T02:47:19.896Z,24.81
2017-06-12T02:48:00.418Z,24.78
2017-06-12T02:48:40.932Z,24.77
2017-06-12T02:49:21.414Z,24.84
2017-06-12T02:50:01.949Z,24.8
2017-06-12T02:50:42.384Z,24.78
2017-06-12T02:51:22.877Z,24.8
2017-06-12T02:52:03.372Z,24.81
2017-06-12T02:52:43.859Z,24.73
2017-06-12T02:53:24.364Z,24.77
2017-06-12T02:54:04.870Z,24.81
2017-06-12T02:54:45.325Z,24.78
2017-06-12T02:55:25.810Z,24.83
2017-06-12T02:56:06.323Z,24.83
2017-06-12T02:56:46.838Z,24.8
2017-06-12T02:57:27.307Z,24.8
2017-06-12T02:58:07.790Z,24.8
2017-06-12T02:58:48.318Z,24.8
2017-06-12T02:59:28.762Z,24.83
2017-06-12T03:00:09.276Z,24.77
2017-06-12T03:00:49.891Z,24.81
2017-06-12T03:01:30.263Z,24.76
2017-06-12T03:02:10.777Z,24.73
2017-06-12T03:02:51.254Z,24.83
2017-06-12T03:03:31.751Z,24.91
2017-06-12T03:04:12.237Z,24.78
2017-06-12T03:04:52.748Z,24.88
2017-06-12T03:05:33.295Z,24.84
2017-06-12T03:06:13.781Z,24.78
2017-06-12T03:06:54.286Z,24.83
2017-06-12T03:07:34.764Z,24.78
2017-06-12T03:08:15.293Z,24.8
2017-06-12T03:08:55.761Z,24.78
2017-06-12T03:09:36.264Z,24.8
2017-06-12T03:10:16.773Z,24.8
2017-06-12T03:10:57.284Z,24.81
2017-06-12T03:11:37.784Z,24.68
2017-06-12T03:12:18.284Z,24.71
2017-06-12T03:12:58.749Z,24.68
2017-06-12T03:13:39.227Z,24.77
2017-06-12T03:14:19.686Z,24.65
2017-06-12T03:15:00.194Z,24.64
2017-06-12T03:15:40.701Z,24.71
2017-06-12T03:16:21.251Z,24.78
2017-06-12T03:17:01.724Z,24.68
2017-06-12T03:17:42.212Z,24.71
2017-06-12T03:18:22.730Z,24.67
2017-06-12T03:19:03.228Z,24.69
2017-06-12T03:19:43.696Z,24.71
2017-06-12T03:20:24.211Z,24.73
2017-06-12T03:21:04.706Z,24.78
2017-06-12T03:21:45.224Z,24.69
2017-06-12T03:22:25.688Z,24.76
2017-06-12T03:23:06.183Z,24.78
2017-06-12T03:23:46.686Z,24.71
2017-06-12T03:24:27.213Z,24.69
2017-06-12T03:25:07.750Z,24.68
2017-06-12T03:25:48.224Z,24.71
2017-06-12T03:26:28.730Z,24.65
2017-06-12T03:27:09.356Z,24.78
2017-06-12T03:27:49.898Z,24.73
2017-06-12T03:28:30.377Z,24.71
2017-06-12T03:29:10.932Z,24.76
2017-06-12T03:29:51.371Z,24.77
2017-06-12T03:30:31.880Z,24.77
2017-06-12T03:31:12.383Z,24.78
2017-06-12T03:31:52.916Z,24.77
2017-06-12T03:32:33.406Z,24.77
2017-06-12T03:33:13.940Z,24.73
2017-06-12T03:33:54.422Z,24.8
2017-06-12T03:34:34.911Z,24.8
2017-06-12T03:35:15.454Z,24.69
2017-06-12T03:35:55.912Z,24.81
2017-06-12T03:36:36.425Z,24.77
2017-06-12T03:37:16.919Z,24.71
2017-06-12T03:37:57.438Z,24.76
2017-06-12T03:38:37.947Z,24.81
2017-06-12T03:39:18.473Z,24.76
2017-06-12T03:39:58.986Z,24.73
2017-06-12T03:40:39.508Z,24.81
2017-06-12T03:41:20.027Z,24.81
2017-06-12T03:42:00.559Z,24.8
2017-06-12T03:42:41.074Z,24.78
2017-06-12T03:43:21.573Z,24.81
2017-06-12T03:44:02.136Z,24.81
2017-06-12T03:44:42.579Z,24.77
2017-06-12T03:45:23.077Z,24.85
2017-06-12T03:46:03.606Z,24.85
2017-06-12T03:46:44.128Z,24.91
2017-06-12T03:47:24.660Z,24.85
2017-06-12T03:48:05.183Z,24.93
2017-06-12T03:48:45.707Z,24.9
2017-06-12T03:49:26.236Z,24.9
2017-06-12T03:50:06.761Z,24.83
2017-06-12T03:50:47.289Z,24.83
2017-06-12T03:51:27.816Z,24.84
2017-06-12T03:52:08.333Z,24.87
2017-06-12T03:52:48.878Z,24.78
2017-06-12T03:53:29.407Z,24.77
2017-06-12T03:54:09.875Z,24.78
2017-06-12T03:54:50.413Z,24.78
2017-06-12T03:55:30.960Z,24.83
2017-06-12T03:56:11.434Z,24.76
2017-06-12T03:56:51.942Z,24.78
2017-06-12T03:57:32.460Z,24.78
2017-06-12T03:58:12.981Z,24.8
2017-06-12T03:58:53.436Z,24.8
2017-06-12T03:59:33.927Z,24.76
2017-06-12T04:00:14.414Z,24.87
2017-06-12T04:00:54.934Z,24.78
2017-06-12T04:01:35.389Z,24.81
2017-06-12T04:02:15.922Z,24.77
2017-06-12T04:02:56.443Z,24.8
2017-06-12T04:03:36.908Z,24.76
2017-06-12T04:04:17.401Z,24.73
2017-06-12T04:04:57.912Z,24.71
2017-06-12T04:05:38.409Z,24.78
2017-06-12T04:06:18.912Z,24.71
2017-06-12T04:06:59.389Z,24.77
2017-06-12T04:07:39.921Z,24.71
2017-06-12T04:08:20.370Z,24.8
2017-06-12T04:09:00.874Z,24.76
2017-06-12T04:09:41.362Z,24.8
2017-06-12T04:10:21.853Z,24.8
2017-06-12T04:11:02.363Z,24.78
2017-06-12T04:11:42.919Z,24.71
2017-06-12T04:12:23.413Z,24.77
2017-06-12T04:13:03.873Z,24.78
2017-06-12T04:13:44.371Z,24.69
2017-06-12T04:14:24.897Z,24.73
2017-06-12T04:15:05.437Z,24.76
2017-06-12T04:15:45.893Z,24.83
2017-06-12T04:16:26.363Z,24.73
2017-06-12T04:17:06.913Z,24.81
2017-06-12T04:17:47.408Z,24.78
2017-06-12T04:18:27.878Z,24.81
2017-06-12T04:19:08.346Z,24.84
2017-06-12T04:19:48.873Z,24.87
2017-06-12T04:20:29.344Z,24.87
2017-06-12T04:21:09.850Z,24.76
2017-06-12T04:21:50.396Z,24.8
2017-06-12T04:22:30.859Z,24.93
2017-06-12T04:23:11.369Z,24.78
2017-06-12T04:23:51.869Z,24.77
2017-06-12T04:24:32.362Z,24.91
2017-06-12T04:25:12.866Z,24.81
2017-06-12T04:25:53.347Z,24.76
2017-06-12T04:26:33.825Z,24.78
2017-06-12T04:27:14.345Z,24.76
2017-06-12T04:27:54.846Z,24.76
2017-06-12T04:28:35.391Z,24.8
2017-06-12T04:29:15.863Z,24.64
2017-06-12T04:29:56.398Z,24.64
2017-06-12T04:30:36.898Z,24.68
2017-06-12T04:31:17.401Z,24.65
2017-06-12T04:31:57.884Z,24.77
2017-06-12T04:32:38.390Z,24.73
2017-06-12T04:33:18.914Z,24.73
2017-06-12T04:33:59.385Z,24.62
2017-06-12T04:34:39.911Z,24.68
2017-06-12T04:35:20.395Z,24.68
2017-06-12T04:36:00.868Z,24.64
2017-06-12T04:36:41.360Z,24.64
2017-06-12T04:37:21.884Z,24.73
2017-06-12T04:38:02.360Z,24.69
2017-06-12T04:38:42.859Z,24.65
2017-06-12T04:39:23.383Z,24.73
2017-06-12T04:40:03.937Z,24.71
2017-06-12T04:40:44.427Z,24.76
2017-06-12T04:41:24.901Z,24.76
2017-06-12T04:42:05.384Z,24.77
2017-06-12T04:42:45.944Z,24.76
2017-06-12T04:43:26.441Z,24.8
2017-06-12T04:44:06.966Z,24.77
2017-06-12T04:44:47.454Z,24.71
2017-06-12T04:45:27.929Z,24.85
2017-06-12T04:46:08.421Z,24.78
2017-06-12T04:46:48.903Z,24.78
2017-06-12T04:47:29.482Z,24.9
2017-06-12T04:48:09.947Z,24.81
2017-06-12T04:48:50.407Z,24.73
2017-06-12T04:49:30.938Z,24.76
2017-06-12T04:50:11.406Z,24.8
2017-06-12T04:50:51.894Z,24.87
2017-06-12T04:51:32.396Z,24.83
2017-06-12T04:52:12.893Z,24.81
2017-06-12T04:52:53.416Z,24.9
2017-06-12T04:53:33.923Z,24.87
2017-06-12T04:54:14.449Z,24.83
2017-06-12T04:54:54.950Z,24.85
2017-06-12T04:55:35.440Z,24.93
2017-06-12T04:56:15.903Z,24.9
2017-06-12T04:56:56.434Z,24.9
2017-06-12T04:57:36.907Z,24.9
2017-06-12T04:58:17.430Z,24.95
2017-06-12T04:58:57.933Z,24.9
2017-06-12T04:59:38.454Z,25
2017-06-12T05:00:19.005Z,25.14
2017-06-12T05:00:59.467Z,25.18
2017-06-12T05:01:39.972Z,25.28
2017-06-12T05:02:20.456Z,25.25
2017-06-12T05:03:01.004Z,25.32
2017-06-12T05:03:41.495Z,25.5
2017-06-12T05:04:21.990Z,25.62
2017-06-12T05:05:02.491Z,25.67
2017-06-12T05:06:40.362Z,25.77
2017-06-12T05:07:20.909Z,25.69
2017-06-12T05:08:01.435Z,25.62
2017-06-12T05:08:41.964Z,25.65
2017-06-12T05:09:22.485Z,25.58
2017-06-12T05:10:03.027Z,25.42
2017-06-12T05:10:43.550Z,25.42
2017-06-12T05:11:24.081Z,25.47
2017-06-12T05:12:04.613Z,25.3
2017-06-12T05:12:45.150Z,25.33
2017-06-12T05:13:25.690Z,25.28
2017-06-12T05:14:06.233Z,25.35
2017-06-12T05:14:46.753Z,25.3
2017-06-12T05:15:27.284Z,25.35
2017-06-12T05:16:07.808Z,25.38
2017-06-12T05:16:48.323Z,25.35
2017-06-12T05:17:28.864Z,25.32
2017-06-12T05:18:09.384Z,25.32
2017-06-12T05:18:49.945Z,25.36
2017-06-12T05:19:30.467Z,25.39
2017-06-12T05:20:10.989Z,25.32
2017-06-12T05:20:51.483Z,25.3
2017-06-12T05:21:32.008Z,25.3
2017-06-12T05:22:12.570Z,25.18
2017-06-12T05:22:53.098Z,25.28
2017-06-12T05:23:33.625Z,25.32
2017-06-12T05:24:14.154Z,25.3
2017-06-12T05:24:54.938Z,25.24
2017-06-12T05:25:35.453Z,25.32
2017-06-12T05:26:15.963Z,25.33
2017-06-12T05:26:56.441Z,25.32
2017-06-12T05:27:36.937Z,25.27
2017-06-12T05:28:17.476Z,25.4
2017-06-12T05:28:58.096Z,25.38
2017-06-12T05:29:38.617Z,25.35
2017-06-12T05:30:19.082Z,25.33
2017-06-12T05:30:59.616Z,25.32
2017-06-12T05:31:40.076Z,25.3
2017-06-12T05:32:20.564Z,25.45
2017-06-12T05:33:01.135Z,25.32
2017-06-12T05:33:45.709Z,25.33
2017-06-12T05:34:28.207Z,25.33
2017-06-12T05:35:08.630Z,25.4
2017-06-12T05:35:49.222Z,25.28
2017-06-12T05:36:29.764Z,25.33
2017-06-12T05:37:10.225Z,25.35
2017-06-12T05:37:50.729Z,25.35
2017-06-12T05:38:31.222Z,25.28
2017-06-12T05:39:11.679Z,25.21
2017-06-12T05:39:52.239Z,25.13
2017-06-12T05:40:33.136Z,25.24
2017-06-12T05:42:11.336Z,25.4
2017-06-12T05:42:51.932Z,25.45
2017-06-12T05:43:32.479Z,25.54
2017-06-12T05:44:12.999Z,25.55
2017-06-12T05:44:53.520Z,25.62
2017-06-12T05:45:35.161Z,25.67
2017-06-12T05:46:15.692Z,25.72
2017-06-12T05:46:56.220Z,25.8
2017-06-12T05:47:36.745Z,25.91
2017-06-12T05:48:17.186Z,25.9
2017-06-12T05:48:57.944Z,25.79
2017-06-12T05:49:39.025Z,25.92
2017-06-12T05:50:19.584Z,25.94
2017-06-12T05:51:00.053Z,25.94
2017-06-12T05:51:40.557Z,25.88
2017-06-12T05:52:21.028Z,26.06
2017-06-12T05:53:01.567Z,25.92
2017-06-12T05:53:42.060Z,25.9
2017-06-12T05:54:22.518Z,25.88
2017-06-12T05:55:03.073Z,25.77
2017-06-12T05:55:43.617Z,25.77
2017-06-12T05:56:26.210Z,25.76
2017-06-12T05:57:06.702Z,25.79
2017-06-12T05:57:46.912Z,25.75
2017-06-12T05:58:27.423Z,25.77
2017-06-12T05:59:07.959Z,25.6
2017-06-12T05:59:48.473Z,25.67
2017-06-12T06:00:29.015Z,25.69
2017-06-12T06:01:09.488Z,25.76
2017-06-12T06:01:49.982Z,25.77
2017-06-12T06:02:30.514Z,25.77
2017-06-12T06:03:10.968Z,25.91
2017-06-12T06:03:51.457Z,25.88
2017-06-12T06:04:31.968Z,25.94
2017-06-12T06:05:12.522Z,25.88
2017-06-12T06:05:52.956Z,25.75
2017-06-12T06:06:33.546Z,25.69
2017-06-12T06:07:14.005Z,25.76
2017-06-12T06:07:54.473Z,25.77
2017-06-12T06:08:34.990Z,25.88
2017-06-12T06:09:15.486Z,25.94
2017-06-12T06:09:55.986Z,25.88
2017-06-12T06:10:36.503Z,25.95
2017-06-12T06:11:16.978Z,25.88
2017-06-12T06:11:57.469Z,25.95
2017-06-12T06:12:37.970Z,25.9
2017-06-12T06:13:18.469Z,25.99
2017-06-12T06:13:58.975Z,25.99
2017-06-12T06:14:39.489Z,25.92
2017-06-12T06:15:19.999Z,25.94
2017-06-12T06:16:00.527Z,25.99
2017-06-12T06:16:41.084Z,25.91
2017-06-12T06:17:21.607Z,26.02
2017-06-12T06:18:02.125Z,26.01
2017-06-12T06:18:42.631Z,26.12
2017-06-12T06:19:23.114Z,26.18
2017-06-12T06:20:03.587Z,26.12
2017-06-12T06:20:44.071Z,26.35
2017-06-12T06:21:24.623Z,26.18
2017-06-12T06:22:05.120Z,26.36
2017-06-12T06:22:45.576Z,26.29
2017-06-12T06:23:26.190Z,26.33
2017-06-12T06:24:06.763Z,26.28
2017-06-12T06:24:47.265Z,26.23
2017-06-12T06:25:27.970Z,26.29
2017-06-12T06:26:08.427Z,26.28
2017-06-12T06:26:48.927Z,26.25
2017-06-12T06:27:29.415Z,26.3
2017-06-12T06:28:09.942Z,26.26
2017-06-12T06:28:50.476Z,26.33
2017-06-12T06:29:30.955Z,26.37
2017-06-12T06:30:11.473Z,26.4
2017-06-12T06:30:51.924Z,26.36
2017-06-12T06:31:32.413Z,26.39
2017-06-12T06:32:12.919Z,26.37
2017-06-12T06:32:53.418Z,26.33
2017-06-12T06:33:33.919Z,26.32
2017-06-12T06:34:14.455Z,26.23
2017-06-12T06:34:55.058Z,26.33
2017-06-12T06:35:35.524Z,26.36
2017-06-12T06:36:16.047Z,26.43
2017-06-12T06:36:56.560Z,26.35
2017-06-12T06:37:37.046Z,26.39
2017-06-12T06:38:17.531Z,26.23
2017-06-12T06:38:58.116Z,26.07
2017-06-12T06:39:38.521Z,26.02
2017-06-12T06:40:19.006Z,26.02
2017-06-12T06:40:59.662Z,26.02
2017-06-12T06:41:40.206Z,25.99
2017-06-12T06:42:20.705Z,25.98
2017-06-12T06:43:01.210Z,25.97
2017-06-12T06:43:41.714Z,26.02
2017-06-12T06:44:22.181Z,26.05
2017-06-12T06:45:02.718Z,26.06
2017-06-12T06:45:43.272Z,26.06
2017-06-12T06:46:23.873Z,26.12
2017-06-12T06:47:04.427Z,26.07
2017-06-12T06:47:44.936Z,26.12
2017-06-12T06:48:25.456Z,26.15
2017-06-12T06:49:05.984Z,26.1
2017-06-12T06:49:46.505Z,26.12
2017-06-12T06:50:26.983Z,26.09
2017-06-12T06:51:07.529Z,26.21
2017-06-12T06:51:48.049Z,26.17
2017-06-12T06:52:28.519Z,26.12
2017-06-12T06:53:09.176Z,26.09
2017-06-12T06:53:49.690Z,26.1
2017-06-12T06:54:30.256Z,26.13
2017-06-12T06:55:10.747Z,26.1
2017-06-12T06:55:51.274Z,26.13
2017-06-12T06:56:31.746Z,26.07
2017-06-12T06:57:12.316Z,26.06
2017-06-12T06:57:52.825Z,26.02
2017-06-12T06:58:33.671Z,26.02
2017-06-12T06:59:13.922Z,26.09
2017-06-12T06:59:54.453Z,26.15
2017-06-12T07:00:34.883Z,26.06
2017-06-12T07:01:15.400Z,26.07
2017-06-12T07:01:55.904Z,26.2
2017-06-12T07:02:36.402Z,26.13
2017-06-12T07:03:16.932Z,26.05
2017-06-12T07:03:57.380Z,26.06
2017-06-12T07:04:37.888Z,26.15
2017-06-12T07:05:18.450Z,26.05
2017-06-12T07:05:59.020Z,25.95
2017-06-12T07:06:39.565Z,25.98
2017-06-12T07:07:20.126Z,26.07
2017-06-12T07:08:00.596Z,25.9
2017-06-12T07:08:41.074Z,26.01
2017-06-12T07:09:21.619Z,26.13
2017-06-12T07:10:02.051Z,26.07
2017-06-12T07:10:42.635Z,26.12
2017-06-12T07:11:23.064Z,26.25
2017-06-12T07:12:04.295Z,26.37
2017-06-12T07:12:44.844Z,26.23
2017-06-12T07:13:25.288Z,26.28
2017-06-12T07:14:05.829Z,26.37
2017-06-12T07:14:46.313Z,26.28
2017-06-12T07:15:26.852Z,26.25
2017-06-12T07:16:07.287Z,26.36
2017-06-12T07:16:47.835Z,26.35
2017-06-12T07:17:28.328Z,26.25
2017-06-12T07:18:08.956Z,26.29
2017-06-12T07:18:49.489Z,26.21
2017-06-12T07:19:30.019Z,26.25
2017-06-12T07:20:10.552Z,26.26
2017-06-12T07:20:50.962Z,26.25
2017-06-12T07:21:31.447Z,26.26
2017-06-12T07:22:11.973Z,26.1
2017-06-12T07:22:52.526Z,26.2
2017-06-12T07:23:33.030Z,26.13
2017-06-12T07:24:13.521Z,26.26
2017-06-12T07:24:53.943Z,26.17
2017-06-12T07:25:34.499Z,26.32
2017-06-12T07:26:14.936Z,26.26
2017-06-12T07:26:55.545Z,26.23
2017-06-12T07:27:36.156Z,26.25
2017-06-12T07:28:16.641Z,26.15
2017-06-12T07:28:57.166Z,26.05
2017-06-12T07:29:37.687Z,25.98
2017-06-12T07:30:18.197Z,25.9
2017-06-12T07:30:58.653Z,25.95
2017-06-12T07:31:39.165Z,25.91
2017-06-12T07:32:19.699Z,25.82
2017-06-12T07:33:00.170Z,25.85
2017-06-12T07:33:40.713Z,25.82
2017-06-12T07:34:21.177Z,25.79
2017-06-12T07:35:01.691Z,25.88
2017-06-12T07:35:42.190Z,25.79
2017-06-12T07:36:24.122Z,25.8
2017-06-12T07:37:04.628Z,25.9
2017-06-12T07:37:45.135Z,25.85
2017-06-12T07:38:25.709Z,25.85
2017-06-12T07:39:06.471Z,25.73
2017-06-12T07:39:46.887Z,25.92
2017-06-12T07:40:27.338Z,25.88
2017-06-12T07:41:07.904Z,25.97
2017-06-12T07:41:48.383Z,25.92
2017-06-12T07:42:28.858Z,25.79
2017-06-12T07:43:09.384Z,25.79
2017-06-12T07:43:50.105Z,25.73
2017-06-12T07:44:30.697Z,25.64
2017-06-12T07:45:11.065Z,25.67
2017-06-12T07:45:51.611Z,25.7
2017-06-12T07:46:32.262Z,25.67
2017-06-12T07:47:12.762Z,25.7
2017-06-12T07:47:53.594Z,25.72
2017-06-12T07:48:34.130Z,25.82
2017-06-12T07:49:14.643Z,25.85
2017-06-12T07:49:55.180Z,25.82
2017-06-12T07:50:35.729Z,25.76
2017-06-12T07:51:16.221Z,25.91
2017-06-12T07:51:56.696Z,25.91
2017-06-12T07:52:37.236Z,25.99
2017-06-12T07:53:17.719Z,25.99
2017-06-12T07:53:58.191Z,25.91
2017-06-12T07:54:38.679Z,25.94
2017-06-12T07:55:19.301Z,26.05
2017-06-12T07:55:59.790Z,26.13
2017-06-12T07:56:40.704Z,26.13
2017-06-12T07:57:21.180Z,26.05
2017-06-12T07:58:01.829Z,26.05
2017-06-12T07:58:42.617Z,26.12
2017-06-12T08:00:56.011Z,26.15
2017-06-12T08:01:36.530Z,26.18
2017-06-12T08:02:17.098Z,26.2
2017-06-12T08:02:57.678Z,26.18
2017-06-12T08:03:38.119Z,26.26
2017-06-12T08:04:18.629Z,26.28
2017-06-12T08:04:59.173Z,26.3
2017-06-12T08:05:39.617Z,26.36
2017-06-12T08:06:20.145Z,26.23
2017-06-12T08:07:00.640Z,26.35
2017-06-12T08:07:41.112Z,26.43
2017-06-12T08:08:21.587Z,26.33
2017-06-12T08:09:02.080Z,26.39
2017-06-12T08:09:42.561Z,26.33
2017-06-12T08:10:23.102Z,26.4
2017-06-12T08:11:03.558Z,26.33
2017-06-12T08:11:44.125Z,26.43
2017-06-12T08:12:24.545Z,26.37
2017-06-12T08:13:05.016Z,26.45
2017-06-12T08:13:45.579Z,26.29
2017-06-12T08:14:26.049Z,26.32
2017-06-12T08:15:06.572Z,26.39
2017-06-12T08:15:47.044Z,26.33
2017-06-12T08:16:27.486Z,26.33
2017-06-12T08:17:08.012Z,26.32
2017-06-12T08:17:48.485Z,26.29
2017-06-12T08:18:28.967Z,26.28
2017-06-12T08:19:09.448Z,26.23
2017-06-12T08:19:49.960Z,26.3
2017-06-12T08:20:30.444Z,26.1
2017-06-12T08:21:10.955Z,26.17
2017-06-12T08:21:51.424Z,26.1
2017-06-12T08:22:31.929Z,26.07
2017-06-12T08:23:12.471Z,26.01
2017-06-12T08:23:52.946Z,26.01
2017-06-12T08:24:33.475Z,25.99
2017-06-12T08:25:13.910Z,25.94
2017-06-12T08:25:54.466Z,25.94
2017-06-12T08:26:35.909Z,25.97
2017-06-12T08:27:16.384Z,26.05
2017-06-12T08:27:56.912Z,26.07
2017-06-12T08:28:37.484Z,26.02
2017-06-12T08:29:18.013Z,26.06
2017-06-12T08:29:58.513Z,26.06
2017-06-12T08:30:39.063Z,26.01
2017-06-12T08:31:19.565Z,25.91
2017-06-12T08:32:00.265Z,26.05
2017-06-12T08:32:40.744Z,25.98
2017-06-12T08:33:21.187Z,25.91
2017-06-12T08:34:01.736Z,25.98
2017-06-12T08:34:42.239Z,25.98
2017-06-12T08:35:22.785Z,26.02
2017-06-12T08:36:03.289Z,26.06
2017-06-12T08:36:43.767Z,26.13
2017-06-12T08:37:24.330Z,26.05
2017-06-12T08:38:04.812Z,25.91
2017-06-12T08:38:45.292Z,25.88
2017-06-12T08:39:25.816Z,25.97
2017-06-12T08:40:06.562Z,26.01
2017-06-12T08:40:47.051Z,26.02
2017-06-12T08:41:27.563Z,25.99
2017-06-12T08:42:08.001Z,26.12
2017-06-12T08:42:48.521Z,26.09
2017-06-12T08:43:29.074Z,26.17
2017-06-12T08:44:09.583Z,26.28
2017-06-12T08:44:50.105Z,26.28
2017-06-12T08:45:30.580Z,26.21
2017-06-12T08:46:11.077Z,26.35
2017-06-12T08:46:51.580Z,26.36
2017-06-12T08:47:32.109Z,26.3
2017-06-12T08:48:12.865Z,26.35
2017-06-12T08:48:53.438Z,26.39
2017-06-12T08:49:33.982Z,26.39